Time;durP1;ratioP1;P1;durP2;ratioP2;P2;SDS_P1;SDS_P2;PMS_P1;PMS_P2;Temp;Humidity;BMP_temperature;BMP_pressure;BME280_temperature;BME280_humidity;BME280_pressure;Samples;Min_cycle;Max_cycle;Signal;HPM_P1;HPM_P2
2021/10/28 00:13:14;;;;;;;19.15;13.05;;;;;;;7.33;76.78;97245.94;5095726;28;20096;-75
2021/10/28 00:15:45;;;;;;;17.08;12.57;;;;;;;7.32;76.75;97244.28;5094403;28;20103;-75
2021/10/28 00:18:16;;;;;;;15.77;12.35;;;;;;;7.34;76.85;97246.75;5094074;28;20113;-75
2021/10/28 00:20:44;;;;;;;16.67;12.93;;;;;;;7.34;76.96;97244.97;5093898;28;20049;-75
2021/10/28 00:23:12;;;;;;;17.13;11.65;;;;;;;7.35;76.84;97249.19;5094265;28;20048;-75
2021/10/28 00:25:40;;;;;;;17.17;13.05;;;;;;;7.37;76.87;97242.09;5093772;28;20044;-75
2021/10/28 00:28:10;;;;;;;16.95;12.52;;;;;;;7.37;77.17;97241.28;5093759;28;20035;-75
2021/10/28 00:30:37;;;;;;;18.27;13.57;;;;;;;7.38;77.07;97243.72;5084638;28;20063;-75
2021/10/28 00:33:04;;;;;;;18.70;13.65;;;;;;;7.38;76.95;97243.72;5074585;28;20048;-76
2021/10/28 00:35:35;;;;;;;16.65;12.45;;;;;;;7.39;77.62;97234.97;5074726;28;20052;-75
2021/10/28 00:38:03;;;;;;;16.77;12.23;;;;;;;7.47;77.43;97236.00;5074964;28;20056;-75
2021/10/28 00:40:31;;;;;;;17.98;12.23;;;;;;;7.53;76.87;97230.25;5074144;28;20048;-75
2021/10/28 00:42:58;;;;;;;20.27;13.68;;;;;;;7.54;76.78;97232.69;5074359;28;20048;-75
2021/10/28 00:45:26;;;;;;;16.27;12.65;;;;;;;7.56;76.91;97222.94;5074047;28;20426;-75
2021/10/28 00:47:53;;;;;;;16.35;12.60;;;;;;;7.61;76.91;97223.34;5073486;28;20052;-75
2021/10/28 00:50:22;;;;;;;15.48;12.27;;;;;;;7.63;76.64;97218.00;5071359;28;20052;-75
2021/10/28 00:52:51;;;;;;;18.23;13.48;;;;;;;7.60;76.70;97226.09;5074373;28;20442;-75
2021/10/28 00:55:19;;;;;;;17.20;12.82;;;;;;;7.57;77.10;97210.81;5073735;28;20044;-75
2021/10/28 00:57:47;;;;;;;16.77;12.18;;;;;;;7.60;77.13;97215.69;5072605;28;20364;-75
2021/10/28 01:00:15;;;;;;;18.98;13.07;;;;;;;7.62;77.00;97218.97;5071970;28;20048;-75
2021/10/28 01:02:43;;;;;;;19.60;14.10;;;;;;;7.62;76.79;97213.78;5071801;28;20083;-75
2021/10/28 01:05:10;;;;;;;18.13;12.85;;;;;;;7.62;76.91;97213.78;5073922;28;20499;-75
2021/10/28 01:07:38;;;;;;;17.90;13.02;;;;;;;7.63;76.95;97218.00;5085153;28;20056;-75
2021/10/28 01:10:08;;;;;;;19.25;14.25;;;;;;;7.63;77.01;97216.22;5095341;28;20036;-75
2021/10/28 01:12:35;;;;;;;19.48;13.20;;;;;;;7.69;77.09;97220.00;5095365;28;20028;-75
2021/10/28 01:15:12;;;;;;;17.65;12.98;;;;;;;7.77;77.55;97217.47;5095166;28;20032;-75
2021/10/28 01:17:39;;;;;;;16.40;11.98;;;;;;;7.88;77.01;97213.84;5095582;28;20050;-75
2021/10/28 01:20:10;;;;;;;13.98;11.73;;;;;;;7.99;75.29;97215.41;5093381;28;20052;-75
2021/10/28 01:22:40;;;;;;;15.95;12.68;;;;;;;8.00;74.19;97223.06;5091155;28;20041;-75
2021/10/28 01:25:08;;;;;;;15.20;11.98;;;;;;;8.06;74.44;97221.63;5089968;28;20044;-75
2021/10/28 01:27:35;;;;;;;16.63;12.63;;;;;;;8.05;72.64;97218.22;5090599;28;20055;-75
2021/10/28 01:30:05;;;;;;;18.50;13.40;;;;;;;7.97;72.29;97217.31;5075479;28;20045;-75
2021/10/28 01:32:33;;;;;;;18.27;14.00;;;;;;;7.89;72.64;97215.47;5071888;28;20048;-75
2021/10/28 01:35:00;;;;;;;16.77;13.05;;;;;;;7.84;73.29;97213.31;5073121;28;20059;-75
2021/10/28 01:37:29;;;;;;;18.58;13.68;;;;;;;7.81;73.53;97208.44;5083201;28;20044;-75
2021/10/28 01:39:56;;;;;;;13.70;11.60;;;;;;;7.80;73.66;97206.78;5094399;28;20048;-76
2021/10/28 01:42:24;;;;;;;15.52;12.15;;;;;;;7.84;73.46;97205.53;5094801;28;20075;-75
2021/10/28 01:44:52;;;;;;;14.48;11.73;;;;;;;7.90;73.47;97205.91;5094063;28;20048;-75
2021/10/28 01:47:19;;;;;;;16.15;12.52;;;;;;;7.97;72.98;97206.94;5082678;28;20487;-75
2021/10/28 01:49:48;;;;;;;14.60;12.45;;;;;;;8.01;72.02;97201.28;5072506;28;20094;-75
2021/10/28 01:52:15;;;;;;;16.10;12.80;;;;;;;8.06;72.47;97198.22;5072489;28;20051;-75
2021/10/28 01:54:44;;;;;;;15.52;12.00;;;;;;;8.09;72.40;97192.75;5072114;28;20502;-75
2021/10/28 01:57:22;;;;;;;15.93;12.00;;;;;;;8.03;73.24;97186.38;5072528;28;20110;-75
2021/10/28 01:59:50;;;;;;;16.23;11.95;;;;;;;8.00;73.73;97183.25;5072242;28;20392;-75
2021/10/28 02:02:18;;;;;;;15.02;11.73;;;;;;;7.97;73.68;97189.56;5072338;28;20049;-75
2021/10/28 02:04:46;;;;;;;15.75;11.43;;;;;;;7.91;74.16;97191.94;5072266;28;20502;-75
2021/10/28 02:07:13;;;;;;;16.80;12.30;;;;;;;7.87;74.57;97185.41;5072291;28;20056;-75
2021/10/28 02:09:42;;;;;;;16.88;12.43;;;;;;;7.87;74.78;97180.22;5071815;28;20059;-75
2021/10/28 02:12:11;;;;;;;17.65;12.68;;;;;;;7.84;74.99;97179.56;5072272;28;20067;-75
2021/10/28 02:14:38;;;;;;;15.35;11.43;;;;;;;7.84;75.14;97181.34;5072354;28;20056;-75
2021/10/28 02:17:06;;;;;;;16.65;12.68;;;;;;;7.82;75.22;97170.28;5072376;28;20041;-75
2021/10/28 02:19:33;;;;;;;18.50;13.23;;;;;;;7.79;75.29;97179.19;5071961;28;20064;-74
2021/10/28 02:22:01;;;;;;;15.18;11.30;;;;;;;7.72;75.74;97183.38;5072079;28;20527;-75
2021/10/28 02:24:29;;;;;;;16.48;11.82;;;;;;;7.72;75.72;97180.75;5072298;28;20056;-74
2021/10/28 02:26:59;;;;;;;16.98;12.57;;;;;;;7.73;75.72;97178.97;5071893;28;20490;-75
2021/10/28 02:29:28;;;;;;;18.08;12.90;;;;;;;7.75;75.96;97183.06;5071697;28;20044;-75
2021/10/28 02:31:57;;;;;;;17.80;12.73;;;;;;;7.74;75.78;97186.63;5071831;28;20056;-75
2021/10/28 02:34:25;;;;;;;16.15;12.38;;;;;;;7.76;75.86;97182.09;5071868;28;20450;-75
2021/10/28 02:36:52;;;;;;;17.08;12.50;;;;;;;7.78;76.15;97182.78;5072053;28;20407;-75
2021/10/28 02:39:20;;;;;;;19.13;12.90;;;;;;;7.80;75.71;97183.41;5071616;28;20072;-75
2021/10/28 02:41:47;;;;;;;19.52;13.25;;;;;;;7.78;76.04;97187.97;5071952;28;20056;-75
2021/10/28 02:44:15;;;;;;;19.50;13.20;;;;;;;7.77;75.90;97180.31;5071867;28;20045;-75
2021/10/28 02:46:44;;;;;;;18.88;13.65;;;;;;;7.75;76.14;97179.66;5071818;28;20396;-75
2021/10/28 02:49:14;;;;;;;20.77;13.25;;;;;;;7.72;76.23;97178.16;5071504;28;20053;-75
2021/10/28 02:51:46;;;;;;;18.92;12.85;;;;;;;7.74;76.27;97176.25;5072394;28;20059;-75
2021/10/28 02:54:14;;;;;;;18.88;12.57;;;;;;;7.76;76.18;97173.47;5072776;28;20517;-75
2021/10/28 02:56:41;;;;;;;20.17;13.02;;;;;;;7.75;76.40;97171.84;5071982;28;20048;-75
2021/10/28 02:59:09;;;;;;;16.65;12.00;;;;;;;7.75;76.40;97180.47;5071804;28;20067;-75
2021/10/28 03:01:42;;;;;;;20.98;13.57;;;;;;;7.75;76.82;97172.66;5072212;28;20075;-75
2021/10/28 03:04:11;;;;;;;20.33;13.70;;;;;;;7.77;76.95;97181.13;5072772;28;20421;-75
2021/10/28 03:06:40;;;;;;;18.00;13.00;;;;;;;7.80;76.75;97170.44;5073060;28;20056;-75
2021/10/28 03:09:10;;;;;;;19.58;12.77;;;;;;;7.81;76.66;97166.88;5071887;28;20051;-75
2021/10/28 03:11:40;;;;;;;18.92;12.98;;;;;;;7.80;76.96;97173.03;5071877;28;20052;-75
2021/10/28 03:14:10;;;;;;;22.30;14.05;;;;;;;7.78;76.99;97172.38;5072032;28;20053;-75
2021/10/28 03:16:47;;;;;;;20.98;14.60;;;;;;;7.78;77.04;97171.53;5072335;28;20477;-75
2021/10/28 03:19:28;;;;;;;24.75;15.93;;;;;;;7.79;76.99;97163.63;5071375;28;20102;-75
2021/10/28 03:27:28;;;;;;;22.45;14.68;;;;;;;7.96;76.79;97171.50;5075413;28;20056;-75
2021/10/28 03:29:56;;;;;;;23.25;14.73;;;;;;;7.94;76.93;97173.47;5074776;28;20462;-75
2021/10/28 03:32:25;;;;;;;22.38;14.60;;;;;;;7.96;77.30;97174.13;5074898;28;20055;-75
2021/10/28 03:34:54;;;;;;;21.92;14.73;;;;;;;7.99;76.94;97169.44;5075288;28;20048;-74
2021/10/28 03:37:25;;;;;;;24.23;13.85;;;;;;;8.01;76.81;97164.91;5075158;28;20070;-74
2021/10/28 03:40:11;;;;;;;23.05;14.23;;;;;;;8.03;76.98;97170.78;5074924;28;20053;-75
2021/10/28 03:43:18;;;;;;;22.27;14.57;;;;;;;8.03;77.09;97164.78;5074753;28;20479;-75
2021/10/28 04:00:22;;;;;;;23.63;15.75;;;;;;;7.98;77.24;97169.59;5064828;28;20056;-75
2021/10/28 04:06:01;;;;;;;21.90;14.65;;;;;;;7.97;77.42;97175.75;5073895;28;20048;-74
2021/10/28 04:08:50;;;;;;;24.30;15.15;;;;;;;7.93;77.63;97169.22;5073837;28;20131;-75
2021/10/28 04:17:11;;;;;;;21.58;14.38;;;;;;;7.88;77.70;97161.09;5074066;28;20052;-74
2021/10/28 04:19:56;;;;;;;27.52;15.00;;;;;;;7.91;77.58;97168.56;5073593;28;20051;-75
2021/10/28 04:30:55;;;;;;;28.08;15.63;;;;;;;7.89;77.76;97158.31;5072942;28;20056;-74
2021/10/28 04:33:23;;;;;;;28.15;16.60;;;;;;;7.89;78.14;97162.72;5073329;28;20049;-74
2021/10/28 04:35:50;;;;;;;25.77;15.27;;;;;;;7.90;78.23;97159.16;5073586;28;20049;-74
2021/10/28 04:38:18;;;;;;;28.42;16.88;;;;;;;7.91;78.02;97160.78;5074244;28;20044;-74
2021/10/28 04:40:47;;;;;;;23.70;15.23;;;;;;;7.91;78.05;97163.38;5073796;28;20086;-76
2021/10/28 04:43:14;;;;;;;25.40;16.00;;;;;;;7.91;77.92;97160.78;5073479;28;20056;-74
2021/10/28 04:45:42;;;;;;;28.30;16.02;;;;;;;7.94;78.01;97165.69;5073011;28;20052;-74
2021/10/28 04:48:11;;;;;;;25.05;16.42;;;;;;;7.93;78.10;97161.44;5091233;22;20048;-73
2021/10/28 04:50:39;;;;;;;25.38;14.48;;;;;;;7.98;78.14;97161.78;5051585;28;20099;-73
2021/10/28 04:53:06;;;;;;;28.45;17.92;;;;;;;8.02;78.15;97157.94;5052256;28;20060;-72
2021/10/28 04:55:34;;;;;;;29.48;16.67;;;;;;;8.05;77.77;97162.84;5052622;28;20525;-73
2021/10/28 04:58:04;;;;;;;28.17;16.67;;;;;;;8.08;77.93;97165.13;5052790;28;20045;-73
2021/10/28 05:00:32;;;;;;;24.60;15.98;;;;;;;8.10;78.31;97157.19;5052933;28;20526;-72
2021/10/28 05:02:59;;;;;;;30.05;16.98;;;;;;;8.11;78.08;97151.84;5053392;28;20096;-73
2021/10/28 05:05:27;;;;;;;24.83;14.98;;;;;;;8.09;78.11;97145.97;5052562;28;20056;-74
2021/10/28 05:07:54;;;;;;;27.35;16.58;;;;;;;8.12;78.27;97145.66;5052995;28;20052;-73
2021/10/28 05:10:22;;;;;;;29.85;17.30;;;;;;;8.12;78.06;97148.25;5052310;28;20048;-73
2021/10/28 05:12:49;;;;;;;30.08;16.55;;;;;;;8.14;77.87;97138.53;5052939;28;20060;-73
2021/10/28 05:15:18;;;;;;;27.33;17.08;;;;;;;8.11;77.78;97151.84;5052358;28;20056;-75
2021/10/28 05:17:45;;;;;;;25.88;15.02;;;;;;;8.08;78.10;97140.94;5052546;28;20099;-73
2021/10/28 05:20:13;;;;;;;25.85;17.55;;;;;;;8.03;77.82;97134.41;5052347;28;20048;-75
2021/10/28 05:22:41;;;;;;;24.52;15.32;;;;;;;8.02;78.31;97137.97;5052593;28;20045;-75
2021/10/28 05:25:09;;;;;;;25.58;16.08;;;;;;;8.01;77.99;97143.31;5052832;28;20442;-75
2021/10/28 05:27:36;;;;;;;24.25;15.40;;;;;;;8.02;78.09;97140.59;5056202;28;20045;-74
2021/10/28 05:30:05;;;;;;;24.65;15.77;;;;;;;8.03;78.13;97141.38;5058073;28;20136;-75
2021/10/28 05:32:34;;;;;;;24.65;15.88;;;;;;;8.00;78.00;97141.66;5053158;28;20048;-74
2021/10/28 05:35:02;;;;;;;26.88;16.17;;;;;;;7.99;78.40;97140.06;5052758;28;20056;-73
2021/10/28 05:37:30;;;;;;;31.80;18.90;;;;;;;7.97;78.54;97144.59;5052593;28;20064;-72
2021/10/28 05:40:00;;;;;;;28.17;17.50;;;;;;;7.97;78.79;97142.00;5052189;28;20044;-73
2021/10/28 05:42:28;;;;;;;30.98;18.05;;;;;;;7.97;78.75;97136.78;5052409;28;20091;-72
2021/10/28 05:44:55;;;;;;;32.25;17.98;;;;;;;7.97;78.56;97144.59;5050714;28;20052;-73
2021/10/28 05:47:23;;;;;;;31.85;19.67;;;;;;;7.96;78.75;97138.59;5052512;28;20048;-73
2021/10/28 05:50:14;;;;;;;30.67;18.35;;;;;;;7.98;78.74;97135.81;5052189;28;20103;-73
2021/10/28 05:52:43;;;;;;;38.50;22.45;;;;;;;8.01;78.82;97138.13;5068536;28;20049;-72
2021/10/28 05:55:11;;;;;;;34.67;20.02;;;;;;;8.03;78.93;97131.00;5073481;28;20048;-72
2021/10/28 05:57:39;;;;;;;34.20;19.27;;;;;;;8.06;78.96;97138.47;5059760;28;20041;-73
2021/10/28 06:00:08;;;;;;;30.90;18.73;;;;;;;8.11;78.95;97128.47;5052552;28;20453;-73
2021/10/28 06:02:36;;;;;;;29.52;19.05;;;;;;;8.16;78.81;97128.81;5055143;28;20068;-72
2021/10/28 06:05:06;;;;;;;30.98;19.15;;;;;;;8.19;78.64;97125.06;5066062;28;20087;-74
2021/10/28 06:07:34;;;;;;;30.08;20.42;;;;;;;8.25;78.64;97122.69;5063141;28;20122;-74
2021/10/28 06:10:02;;;;;;;29.38;18.05;;;;;;;8.32;78.21;97127.25;5061305;28;20531;-72
2021/10/28 06:12:34;;;;;;;30.48;18.55;;;;;;;8.36;78.35;97129.41;5074677;28;20051;-72
2021/10/28 06:15:02;;;;;;;32.15;20.02;;;;;;;8.36;77.78;97129.41;5072832;28;20052;-73
2021/10/28 06:17:38;;;;;;;34.38;19.20;;;;;;;8.30;78.22;97129.19;5072300;28;20407;-73
2021/10/28 06:20:06;;;;;;;38.85;21.65;;;;;;;8.28;78.40;97125.94;5072248;28;20055;-73
2021/10/28 06:22:35;;;;;;;34.63;20.13;;;;;;;8.22;78.51;97125.59;5073174;28;20053;-73
2021/10/28 06:25:04;;;;;;;27.27;17.30;;;;;;;8.19;78.46;97123.28;5073283;28;20053;-73
2021/10/28 06:27:31;;;;;;;32.25;19.92;;;;;;;8.22;78.79;97130.78;5076886;28;20044;-73
2021/10/28 06:29:59;;;;;;;36.38;20.38;;;;;;;8.22;78.31;97132.56;5072970;28;20056;-73
2021/10/28 06:32:26;;;;;;;34.75;20.17;;;;;;;8.24;78.67;97126.25;5071105;28;20414;-73
2021/10/28 06:34:53;;;;;;;29.25;18.67;;;;;;;8.27;78.52;97132.13;5073165;28;20465;-73
2021/10/28 06:37:21;;;;;;;33.85;21.20;;;;;;;8.23;78.49;97135.00;5072231;28;20414;-73
2021/10/28 06:39:50;;;;;;;31.65;19.45;;;;;;;8.18;78.99;97132.06;5065298;28;20045;-73
2021/10/28 06:42:17;;;;;;;34.05;21.65;;;;;;;8.16;78.77;97126.19;5055591;28;20053;-73
2021/10/28 06:44:45;;;;;;;34.85;20.05;;;;;;;8.16;79.31;97125.41;5074094;28;20049;-72
2021/10/28 06:47:12;;;;;;;35.00;22.02;;;;;;;8.18;79.11;97124.28;5072988;28;20063;-72
2021/10/28 06:49:42;;;;;;;34.40;20.08;;;;;;;8.17;78.98;97121.81;5070525;28;20049;-72
2021/10/28 06:52:12;;;;;;;33.83;20.48;;;;;;;8.16;79.36;97128.00;5062290;28;20049;-73
2021/10/28 06:54:41;;;;;;;33.17;19.92;;;;;;;8.17;79.34;97125.22;5056089;28;20072;-73
2021/10/28 07:02:43;;;;;;;35.75;19.58;;;;;;;8.16;79.44;97131.41;5056086;28;20048;-73
2021/10/28 07:05:11;;;;;;;33.17;19.17;;;;;;;8.22;79.55;97136.00;5055708;28;20049;-73
2021/10/28 07:07:39;;;;;;;33.40;20.98;;;;;;;8.28;79.16;97133.72;5055941;28;20136;-74
2021/10/28 07:10:10;;;;;;;35.05;19.75;;;;;;;8.32;79.24;97135.88;5055054;28;20049;-73
2021/10/28 07:12:53;;;;;;;30.10;19.35;;;;;;;8.31;79.07;97130.81;5075522;28;20049;-72
2021/10/28 07:15:25;;;;;;;29.33;19.33;;;;;;;8.31;79.08;97126.47;5075460;28;20045;-72
2021/10/28 07:18:13;;;;;;;30.70;18.13;;;;;;;8.34;79.02;97135.72;5070579;28;20055;-73
2021/10/28 07:21:04;;;;;;;29.75;18.25;;;;;;;8.36;78.96;97133.78;5056108;28;20502;-73
2021/10/28 07:26:37;;;;;;;28.58;18.50;;;;;;;8.40;78.92;97135.13;5055112;28;20072;-73
2021/10/28 07:32:16;;;;;;;24.90;16.08;;;;;;;8.52;79.00;97122.69;5054652;28;20063;-73
2021/10/28 07:35:11;;;;;;;27.63;16.67;;;;;;;8.56;78.53;97130.00;5055135;28;20045;-73
2021/10/28 07:57:20;;;;;;;21.75;13.65;;;;;;;8.70;77.08;97130.38;5054293;28;20052;-72
2021/10/28 08:00:04;;;;;;;18.15;13.07;;;;;;;8.68;77.40;97132.31;5053656;28;20052;-72
2021/10/28 08:14:10;;;;;;;20.83;13.02;;;;;;;8.78;77.27;97130.44;5053827;28;20049;-73
2021/10/28 08:19:38;;;;;;;19.23;12.90;;;;;;;8.93;76.70;97130.63;5053255;28;20048;-73
2021/10/28 08:22:10;;;;;;;17.48;12.95;;;;;;;8.95;76.23;97124.31;5053861;28;20514;-73
2021/10/28 08:30:09;;;;;;;21.40;14.60;;;;;;;9.00;76.00;97116.81;5053217;28;20059;-73
2021/10/28 08:32:37;;;;;;;22.20;14.38;;;;;;;8.97;76.14;97111.13;5054156;28;20079;-73
2021/10/28 08:35:09;;;;;;;21.73;14.35;;;;;;;8.98;76.32;97118.78;5053533;28;20049;-75
2021/10/28 08:37:41;;;;;;;20.77;13.98;;;;;;;8.96;75.96;97112.09;5053847;28;20048;-73
2021/10/28 08:40:11;;;;;;;21.42;13.02;;;;;;;8.98;76.19;97100.56;5052357;28;20448;-73
2021/10/28 08:42:39;;;;;;;20.77;13.63;;;;;;;8.99;75.98;97107.41;5053857;28;20128;-73
2021/10/28 08:45:08;;;;;;;20.90;13.38;;;;;;;9.02;75.87;97109.66;5053301;28;20059;-73
2021/10/28 08:47:37;;;;;;;18.35;12.73;;;;;;;9.02;75.78;97094.06;5052723;28;20420;-72
2021/10/28 08:50:10;;;;;;;20.25;13.52;;;;;;;9.02;76.14;97098.47;5052237;28;20059;-73
2021/10/28 08:52:57;;;;;;;21.00;15.10;;;;;;;9.04;75.83;97099.91;5053312;28;20049;-72
2021/10/28 08:55:29;;;;;;;21.45;14.05;;;;;;;9.09;75.79;97089.03;5053023;28;20507;-73
2021/10/28 09:23:57;;;;;;;21.75;14.05;;;;;;;9.40;74.52;97078.84;5051895;28;20525;-73
2021/10/28 09:26:31;;;;;;;19.48;15.35;;;;;;;9.46;74.13;97088.56;5052607;28;20088;-72
2021/10/28 09:29:07;;;;;;;22.98;15.73;;;;;;;9.46;73.88;97085.97;5051829;28;20052;-73
2021/10/28 09:31:37;;;;;;;22.33;14.68;;;;;;;9.51;74.16;97079.47;5052248;28;20053;-72
2021/10/28 09:34:15;;;;;;;23.15;16.45;;;;;;;9.57;73.98;97077.03;5052426;28;20099;-73
2021/10/28 09:45:31;;;;;;;24.13;16.35;;;;;;;9.87;73.74;97082.53;5051986;28;20411;-74
2021/10/28 09:48:09;;;;;;;23.00;15.55;;;;;;;9.93;73.37;97081.03;5052219;28;20053;-74
2021/10/28 09:50:50;;;;;;;23.42;14.93;;;;;;;10.04;73.55;97072.91;5051734;28;20044;-73
2021/10/28 09:53:27;;;;;;;25.52;15.95;;;;;;;10.10;72.59;97067.00;5052454;28;20053;-73
2021/10/28 09:58:42;;;;;;;22.80;15.35;;;;;;;10.37;72.55;97072.84;5051698;28;20057;-73
2021/10/28 10:01:31;;;;;;;22.67;15.63;;;;;;;10.59;71.72;97071.28;5051855;28;20124;-73
2021/10/28 10:04:00;;;;;;;21.58;15.23;;;;;;;10.71;70.94;97070.75;5051584;28;20056;-75
2021/10/28 10:06:28;;;;;;;22.92;16.33;;;;;;;10.81;71.08;97080.94;5049041;28;20063;-73
2021/10/28 10:08:57;;;;;;;22.15;15.80;;;;;;;10.92;70.50;97077.16;5050553;28;20053;-73
2021/10/28 10:11:27;;;;;;;24.33;16.83;;;;;;;10.96;69.53;97075.81;5061048;28;20049;-73
2021/10/28 10:13:55;;;;;;;24.17;16.55;;;;;;;11.00;69.84;97074.50;5051796;28;20465;-75
2021/10/28 10:16:23;;;;;;;26.33;17.52;;;;;;;11.08;69.73;97079.63;5051369;28;20049;-74
2021/10/28 10:18:51;;;;;;;36.42;17.77;;;;;;;11.25;69.02;97072.53;5051314;28;20095;-74
2021/10/28 10:21:30;;;;;;;25.65;18.35;;;;;;;11.36;68.30;97073.91;5051399;28;20391;-75
2021/10/28 10:24:08;;;;;;;26.00;17.48;;;;;;;11.41;68.03;97076.81;5051512;28;20526;-73
2021/10/28 11:05:12;;;;;;;17.33;14.13;;;;;;;18.55;51.53;97027.09;5075072;28;20052;-77
2021/10/28 11:31:15;;;;;;;16.55;12.00;;;;;;;21.68;42.43;97003.69;5074769;28;20052;-77
2021/10/28 12:47:20;;;;;;;11.60;9.82;;;;;;;18.50;48.99;96912.31;5064210;28;20055;-75
2021/10/28 13:04:07;;;;;;;16.27;12.38;;;;;;;18.27;48.20;96894.53;5073595;28;20050;-77
2021/10/28 13:06:53;;;;;;;15.82;12.00;;;;;;;18.22;48.06;96885.69;5073315;28;20060;-77
2021/10/28 13:48:24;;;;;;;11.35;8.48;;;;;;;18.05;46.71;96841.41;5071513;28;20048;-77
2021/10/28 13:51:07;;;;;;;12.98;8.25;;;;;;;18.09;47.04;96852.34;5072063;28;20045;-77
2021/10/28 13:53:47;;;;;;;9.10;8.18;;;;;;;18.09;47.55;96847.84;5072357;28;20121;-77
2021/10/28 13:59:23;;;;;;;9.88;8.20;;;;;;;18.10;46.48;96851.28;5072407;28;20078;-73
2021/10/28 14:24:20;;;;;;;11.77;9.30;;;;;;;17.96;46.72;96837.47;5072866;28;20048;-74
2021/10/28 14:27:14;;;;;;;;;;;;;;;17.94;47.03;96836.09;5074232;28;20052;-75
2021/10/28 14:38:38;;;;;;;11.63;8.35;;;;;;;17.84;47.80;96833.97;5024386;28;20049;-75
2021/10/28 15:28:18;;;;;;;8.90;7.95;;;;;;;17.11;49.49;96809.19;5074957;28;20506;-74
2021/10/28 15:31:18;;;;;;;10.80;8.73;;;;;;;17.05;50.65;96817.94;5075425;28;20462;-75
2021/10/28 15:36:44;;;;;;;18.60;13.88;;;;;;;16.88;51.45;96812.44;5039542;28;20052;-73
2021/10/28 15:39:22;;;;;;;26.17;15.38;;;;;;;16.79;51.83;96811.88;5073764;28;20049;-78
2021/10/28 15:42:26;;;;;;;25.52;16.95;;;;;;;16.63;52.41;96820.31;5068106;28;20055;-73
2021/10/28 15:53:55;;;;;;;28.58;17.02;;;;;;;15.99;54.23;96815.06;5074839;28;20055;-74
2021/10/28 15:56:46;;;;;;;27.45;17.90;;;;;;;15.83;54.76;96813.72;5080820;28;20056;-74
2021/10/28 16:24:12;;;;;;;28.63;20.23;;;;;;;14.43;59.19;96808.66;5074435;28;20124;-75
2021/10/28 16:26:40;;;;;;;28.67;19.65;;;;;;;14.34;59.36;96806.44;5073252;28;20418;-74
2021/10/28 16:29:12;;;;;;;29.75;20.20;;;;;;;14.22;59.72;96808.84;5073883;28;20044;-79
2021/10/28 16:31:41;;;;;;;26.85;20.85;;;;;;;14.08;60.35;96812.44;5074610;28;20052;-75
2021/10/28 16:34:10;;;;;;;28.88;20.40;;;;;;;13.95;60.56;96803.53;5073811;28;20053;-78
2021/10/28 16:36:39;;;;;;;28.05;19.55;;;;;;;13.81;61.09;96809.75;5072733;28;20057;-73
2021/10/28 16:39:10;;;;;;;29.00;20.35;;;;;;;13.71;61.31;96812.75;5072864;28;20056;-74
2021/10/28 16:41:39;;;;;;;32.15;19.75;;;;;;;13.58;61.91;96813.50;5072643;28;20051;-73
2021/10/28 16:44:07;;;;;;;28.73;20.05;;;;;;;13.50;62.04;96810.22;5073297;28;20048;-74
2021/10/28 16:46:36;;;;;;;26.17;18.70;;;;;;;13.41;62.35;96809.59;5073711;28;20052;-73
2021/10/28 16:49:04;;;;;;;27.02;19.38;;;;;;;13.34;62.59;96816.63;5072874;28;20079;-75
2021/10/28 16:51:32;;;;;;;30.33;20.17;;;;;;;13.28;63.09;96818.19;5077901;22;20419;-80
2021/10/28 16:54:01;;;;;;;24.88;18.92;;;;;;;13.23;63.27;96810.06;5061713;28;20057;-77
2021/10/28 16:56:29;;;;;;;31.38;21.02;;;;;;;13.18;63.28;96808.03;5058560;28;20079;-77
2021/10/28 16:58:58;;;;;;;25.85;19.60;;;;;;;13.11;63.73;96812.41;5057130;28;20422;-85
2021/10/28 17:01:26;;;;;;;30.20;20.75;;;;;;;13.03;63.37;96814.38;5057301;28;20605;-77
2021/10/28 17:03:54;;;;;;;27.20;19.35;;;;;;;12.91;63.87;96811.47;5057949;28;20063;-78
2021/10/28 17:06:22;;;;;;;26.90;19.55;;;;;;;12.78;64.18;96807.75;5059124;28;20049;-79
2021/10/28 17:08:56;;;;;;;26.50;19.05;;;;;;;12.70;64.49;96815.78;5058340;28;20057;-81
2021/10/28 17:11:26;;;;;;;30.80;20.40;;;;;;;12.62;64.85;96809.88;5041728;28;20053;-78
2021/10/28 17:13:56;;;;;;;26.83;19.63;;;;;;;12.54;64.92;96810.78;5038326;28;20133;-77
2021/10/28 17:16:24;;;;;;;28.73;19.25;;;;;;;12.46;65.48;96816.16;5038299;28;20049;-76
2021/10/28 17:18:51;;;;;;;28.90;20.20;;;;;;;12.41;65.68;96810.69;5037804;28;20053;-78
2021/10/28 17:21:19;;;;;;;28.38;20.10;;;;;;;12.35;65.81;96815.69;5036433;28;20045;-78
2021/10/28 17:23:50;;;;;;;28.55;20.80;;;;;;;12.33;65.79;96820.28;5039190;28;20060;-79
2021/10/28 17:26:18;;;;;;;28.48;20.42;;;;;;;12.29;65.92;96816.41;5038979;28;20052;-77
2021/10/28 17:28:47;;;;;;;26.40;19.70;;;;;;;12.28;66.29;96817.41;5037261;28;20057;-77
2021/10/28 17:31:14;;;;;;;28.90;19.95;;;;;;;12.24;66.19;96821.38;5037338;28;20103;-79
2021/10/28 17:33:42;;;;;;;39.55;21.15;;;;;;;12.19;66.28;96812.50;5037516;28;20053;-77
2021/10/28 17:36:10;;;;;;;28.92;19.58;;;;;;;12.12;66.42;96813.22;5037512;28;20555;-78
2021/10/28 17:38:37;;;;;;;32.42;21.80;;;;;;;12.05;66.56;96816.78;5036546;28;20196;-77
2021/10/28 17:41:06;;;;;;;27.58;20.00;;;;;;;11.95;66.80;96815.25;5037167;28;20053;-78
2021/10/28 17:43:53;;;;;;;29.52;20.95;;;;;;;11.85;67.35;96826.97;5037361;28;20050;-78
2021/10/28 17:46:24;;;;;;;29.17;19.52;;;;;;;11.74;67.23;96825.66;5037517;28;20538;-78
2021/10/28 17:48:52;;;;;;;28.15;20.45;;;;;;;11.63;67.65;96819.13;5049580;28;20399;-78
2021/10/28 17:51:21;;;;;;;30.95;21.58;;;;;;;11.52;67.91;96819.56;5057112;28;20049;-80
2021/10/28 17:53:48;;;;;;;29.77;18.70;;;;;;;11.45;68.32;96822.09;5059742;28;20056;-78
2021/10/28 17:56:16;;;;;;;34.55;23.70;;;;;;;11.40;68.44;96818.41;5057381;28;20052;-76
2021/10/28 17:58:44;;;;;;;30.35;21.67;;;;;;;11.34;68.45;96828.56;5054326;28;20522;-77
2021/10/28 18:01:15;;;;;;;30.33;20.83;;;;;;;11.29;68.82;96836.16;5043841;28;20053;-78
2021/10/28 18:03:43;;;;;;;30.70;20.85;;;;;;;11.22;68.83;96831.84;5035871;28;20045;-77
2021/10/28 18:06:10;;;;;;;29.83;20.25;;;;;;;11.17;69.09;96828.94;5034972;28;20053;-76
2021/10/28 18:08:38;;;;;;;30.00;21.17;;;;;;;11.07;69.20;96837.06;5032768;28;20049;-77
2021/10/28 18:11:05;;;;;;;29.48;21.58;;;;;;;10.95;69.35;96836.66;5045718;28;20045;-77
2021/10/28 18:13:34;;;;;;;30.65;20.10;;;;;;;10.82;69.88;96823.41;5053688;28;20052;-79
2021/10/28 18:16:03;;;;;;;28.40;20.83;;;;;;;10.74;70.09;96831.34;5045002;28;20059;-78
2021/10/28 18:18:33;;;;;;;27.38;20.23;;;;;;;10.69;70.42;96832.66;5051774;28;20045;-76
2021/10/28 18:21:02;;;;;;;27.27;19.35;;;;;;;10.66;70.46;96837.41;5052231;28;20450;-76
2021/10/28 18:23:32;;;;;;;28.13;21.13;;;;;;;10.62;70.45;96838.75;5052649;28;20048;-75
2021/10/28 18:26:00;;;;;;;28.17;20.33;;;;;;;10.61;70.99;96839.75;5052096;28;20072;-76
2021/10/28 18:28:29;;;;;;;29.95;21.83;;;;;;;10.61;70.88;96835.34;5049731;28;20045;-75
2021/10/28 18:30:57;;;;;;;28.75;20.98;;;;;;;10.59;70.89;96829.50;5032000;28;20045;-77
2021/10/28 18:33:24;;;;;;;28.42;21.17;;;;;;;10.56;71.03;96831.63;5031879;28;20059;-76
2021/10/28 18:35:54;;;;;;;29.60;20.73;;;;;;;10.57;71.39;96833.25;5031521;28;20087;-76
2021/10/28 18:38:22;;;;;;;27.50;19.70;;;;;;;10.58;71.09;96833.06;5032789;28;20050;-76
2021/10/28 18:40:56;;;;;;;30.92;21.15;;;;;;;10.57;70.96;96843.69;5034285;28;20053;-78
2021/10/28 18:43:23;;;;;;;28.08;20.65;;;;;;;10.51;71.25;96845.19;5035180;28;20041;-78
2021/10/28 18:45:51;;;;;;;30.08;20.33;;;;;;;10.48;71.23;96835.94;5034221;28;20050;-79
2021/10/28 18:48:18;;;;;;;30.33;20.90;;;;;;;10.42;71.25;96830.59;5034373;28;20076;-78
2021/10/28 18:50:46;;;;;;;27.10;19.92;;;;;;;10.38;71.81;96837.16;5035724;28;20049;-77
2021/10/28 18:53:15;;;;;;;31.75;21.85;;;;;;;10.36;71.86;96831.28;5038247;28;20057;-77
2021/10/28 18:55:44;;;;;;;30.63;22.25;;;;;;;10.35;71.41;96830.50;5037567;28;20057;-78
2021/10/28 18:58:11;;;;;;;28.42;20.15;;;;;;;10.34;71.70;96831.47;5037242;28;20065;-80
2021/10/28 19:00:40;;;;;;;28.33;19.75;;;;;;;10.31;71.71;96827.41;5041142;28;20048;-84
2021/10/28 19:03:07;;;;;;;26.08;20.05;;;;;;;10.27;71.66;96818.28;5048566;28;20052;-80